Station: Kingscote

  Atmospheric Gas Attenuation - ITU Rec 676-11   --------------- db/100km ---------------
Date Time Temp RH % AH g/m3 Dew Point Wind Direction Speed kph Gust kph Barometer mB Rainfall Since 9am 24GHz 47GHz 76GHz 122GHz 134GHz 241GHz
15 00:20 11.5 86 8.88 9.2 20 24 1018.4 3.6 20.3 27.2 42.4 111.2 105.7 363.5
15 00:10 11.6 86 8.94 9.3 19 22 1018.4 3.6 20.4 27.3 42.6 111.8 106.3 366.0
15 00:00 11.5 86 8.88 9.2 22 24 1018.4 3.6 20.3 27.2 42.4 111.2 105.7 363.5
14 23:50 11.4 87 8.93 9.3 15 17 1018.4 3.6 20.4 27.4 42.6 111.9 106.5 366.4
14 23:40 11.4 87 8.93 9.3 15 17 1018.4 3.6 20.4 27.4 42.6 111.9 106.5 366.4
14 23:30 11.4 88 9.03 9.5 15 20 1018.4 3.6 20.6 27.5 43.1 113.1 107.9 371.3
14 23:20 11.4 88 9.03 9.5 19 20 1018.4 3.6 20.6 27.5 43.1 113.1 107.9 371.3
14 23:10 11.3 88 8.98 9.4 20 24 1018.3 3.6 20.5 27.5 42.9 112.6 107.3 369.3
14 23:00 11.2 89 9.02 9.5 22 24 1018.3 3.6 20.6 27.6 43.1 113.2 108.0 371.7
14 22:50 11.3 89 9.08 9.6 19 20 1018.3 3.6 20.7 27.6 43.3 113.8 108.7 374.2
14 22:40 11.2 90 9.12 9.6 17 17 1018.3 3.6 20.8 27.7 43.6 114.4 109.4 376.6
14 22:30 11.1 90 9.07 9.5 15 17 1018.1 3.6 20.7 27.7 43.4 113.9 108.8 374.6
14 22:20 11.2 89 9.02 9.5 22 24 1018 3.6 20.6 27.6 43.1 113.2 108.0 371.6
14 22:10 11.3 89 9.08 9.6 19 24 1018 3.6 20.7 27.6 43.3 113.7 108.7 374.1
14 22:00 11.2 89 9.02 9.5 20 24 1017.8 3.6 20.6 27.6 43.1 113.2 108.0 371.6
14 21:50 11.1 92 9.27 9.9 17 20 1017.8 3.6 21.2 28.0 44.2 116.2 111.6 384.3
14 21:40 11.1 92 9.27 9.9 20 22 1017.8 3.6 21.2 28.0 44.2 116.2 111.6 384.3
14 21:30 11.1 92 9.27 9.9 19 20 1017.7 3.6 21.2 28.0 44.2 116.2 111.6 384.3
14 21:20 11.1 93 9.37 10 20 24 1017.7 3.6 21.4 28.2 44.7 117.3 113.0 389.2
14 21:10 11.1 93 9.37 10 17 19 1017.6 3.4 21.4 28.2 44.6 117.3 113.0 389.2
14 21:00 11.1 93 9.37 10 17 20 1017.5 3.4 21.4 28.2 44.6 117.3 113.0 389.2
14 20:50 11 93 9.31 9.9 20 24 1017.4 3.4 21.3 28.1 44.4 116.7 112.3 386.7
14 20:40 11.2 93 9.43 10.1 22 26 1017.5 3.4 21.5 28.2 44.8 117.8 113.7 391.6
14 20:30 11.2 92 9.33 10 24 32 1017.5 3.4 21.3 28.1 44.4 116.7 112.3 386.7
14 20:20 11.1 93 9.37 10 24 28 1017.3 3.4 21.4 28.2 44.6 117.3 113.0 389.1
14 20:10 11.2 93 9.43 10.1 26 30 1017.1 3.4 21.5 28.2 44.8 117.8 113.7 391.5
14 20:00 11.2 93 9.43 10.1 20 24 1017.2 3.4 21.5 28.2 44.8 117.8 113.7 391.5
14 19:50 11.4 92 9.44 10.1 22 26 1017.1 3.4 21.5 28.2 44.8 117.6 113.5 391.0
14 19:40 11.4 91 9.34 10 20 24 1016.9 3.4 21.3 28.0 44.3 116.4 112.1 386.0
14 19:30 11.4 92 9.44 10.1 20 24 1016.8 3.4 21.5 28.2 44.7 117.6 113.5 390.9
14 19:20 11.5 92 9.5 10.2 15 19 1016.7 3.4 21.6 28.2 44.9 118.1 114.2 393.3
14 19:10 11.4 92 9.44 10.1 22 26 1016.5 3.4 21.5 28.2 44.7 117.5 113.5 390.8
14 19:00 11.3 93 9.49 10.2 24 30 1016.4 3.4 21.6 28.3 45.0 118.2 114.3 393.7
14 18:50 11.5 94 9.71 10.6 19 22 1016.2 3.4 22.1 28.6 45.8 120.4 117.1 403.6
14 18:40 11.6 93 9.67 10.5 20 26 1016.1 3.4 22.0 28.5 45.6 119.8 116.4 401.0
14 18:30 11.6 93 9.67 10.5 24 30 1016.1 3.4 22.0 28.5 45.6 119.8 116.4 401.0
14 18:20 11.8 92 9.68 10.5 22 26 1015.8 3.4 22.0 28.4 45.5 119.6 116.2 400.4
14 18:10 11.9 92 9.74 10.6 22 26 1015.5 3.4 22.1 28.5 45.7 120.1 116.8 402.7
14 18:00 12 92 9.81 10.7 28 30 1015.3 3.4 22.3 28.6 45.9 120.7 117.7 405.6
14 17:50 12 92 9.81 10.7 22 26 1015 3.4 22.3 28.5 45.9 120.7 117.6 405.5
14 17:40 12 92 9.81 10.7 26 33 1014.7 3.4 22.3 28.5 45.9 120.6 117.6 405.4
14 17:30 12.1 92 9.87 10.8 24 28 1014.5 3.4 22.4 28.6 46.1 121.2 118.3 407.8
14 17:20 12.2 92 9.93 10.9 26 32 1014.2 3.4 22.5 28.7 46.3 121.6 119.0 410.1
14 17:10 12.4 92 10.05 11.1 20 24 1013.9 3.4 22.8 28.8 46.6 122.7 120.3 414.9
14 17:00 12.4 92 10.05 11.1 28 35 1013.9 3.4 22.8 28.8 46.6 122.7 120.3 414.9
14 16:50 12.6 91 10.07 11.2 28 35 1013.7 3.4 22.8 28.7 46.6 122.6 120.3 414.8
14 16:40 12.8 91 10.19 11.4 20 26 1013.7 3.4 23.1 28.9 47.0 123.6 121.6 419.6
14 16:30 12.9 91 10.26 11.5 26 30 1013.6 3.4 23.2 29.0 47.2 124.3 122.5 422.5
14 16:20 13 91 10.32 11.6 28 32 1013.5 3.4 23.3 29.0 47.4 124.8 123.1 424.9
14 16:10 13.2 91 10.45 11.8 28 32 1013.3 3.4 23.6 29.2 47.9 125.9 124.7 430.2
14 16:00 13.4 90 10.46 11.8 28 30 1013.2 3.4 23.6 29.1 47.8 125.7 124.5 429.5
14 15:50 13.9 89 10.67 12.1 24 30 1013.1 3.4 24.0 29.3 48.4 127.3 126.6 437.1
14 15:40 14.5 90 11.19 12.9 19 22 1012.9 3.4 25.1 30.0 50.2 132.3 133.0 459.4
14 15:30 14.7 90 11.33 13.1 20 24 1012.7 3.4 25.4 30.2 50.7 133.6 134.6 465.2
14 15:20 14.8 89 11.27 13 17 19 1012.6 3.4 25.3 30.1 50.4 132.7 133.6 461.5
14 15:10 15.1 90 11.61 13.5 17 19 1012.4 3.4 26.0 30.5 51.7 136.1 137.9 476.7
14 15:00 15.2 90 11.68 13.6 19 22 1012.4 3.4 26.1 30.6 51.9 136.7 138.7 479.6
14 14:50 15.2 90 11.68 13.6 17 17 1012.1 3.4 26.1 30.6 51.9 136.7 138.7 479.4
14 14:40 15.3 89 11.62 13.5 17 17 1012 3.4 26.0 30.5 51.5 135.8 137.6 475.8
14 14:30 15.6 90 11.97 14 11 13 1012.1 3.4 26.7 31.0 52.9 139.4 142.1 491.5
14 14:20 15.7 90 12.04 14.1 11 13 1012 3.4 26.9 31.1 53.1 140.0 142.9 494.4
14 14:10 15.5 90 11.9 13.9 13 13 1012.1 3.4 26.6 30.9 52.6 138.7 141.3 488.6
14 14:00 15.7 92 12.31 14.4 11 11 1012 3.4 27.4 31.5 54.3 143.2 146.9 508.1
14 13:50 15.1 91 11.74 13.6 7 9 1012.1 3.4 26.3 30.8 52.2 137.6 139.7 483.1
14 13:40 15.2 91 11.81 13.7 11 11 1012.1 3.4 26.4 30.8 52.4 138.2 140.5 486.0
14 13:30 15.7 90 12.04 14.1 13 17 1012.2 3.4 26.9 31.1 53.1 140.0 142.9 494.4
14 13:20 15.9 90 12.19 14.3 15 17 1012 3.4 27.2 31.3 53.6 141.4 144.7 500.6
14 13:10 16.5 90 12.64 14.9 13 15 1011.9 3.4 28.1 31.8 55.2 145.6 150.1 519.4
14 13:00 15.8 91 12.25 14.3 13 17 1012 3.4 27.3 31.4 54.0 142.3 145.8 504.3
14 12:50 15.5 92 12.16 14.2 11 13 1012.1 3.4 27.1 31.4 53.8 141.8 145.1 501.8
14 12:40 15.9 94 12.73 14.9 11 13 1012.2 3.4 28.3 32.2 56.1 147.9 152.6 528.3
14 12:30 15.7 95 12.71 14.9 11 15 1012.2 3.4 28.3 32.3 56.1 148.0 152.8 528.6
14 12:20 15.1 96 12.38 14.5 9 13 1012.3 3.4 27.6 31.9 55.1 145.2 149.1 515.8
14 12:10 15.2 97 12.59 14.7 7 9 1012.4 3.4 28.1 32.3 56.0 147.5 152.0 526.0
14 12:00 14.5 97 12.06 14 11 15 1012.6 3.4 27.0 31.6 54.1 142.5 145.6 503.4
14 11:50 14 97 11.7 13.5 11 15 1012.5 3.4 26.2 31.1 52.8 139.1 141.2 488.2
14 11:40 14 97 11.7 13.5 11 13 1012.4 3.4 26.2 31.1 52.8 139.1 141.2 488.1
14 11:30 14.1 97 11.77 13.6 15 17 1012.1 3.4 26.4 31.2 53.0 139.7 142.0 491.0
14 11:20 14.1 96 11.65 13.5 11 13 1012.6 3 26.1 31.0 52.5 138.4 140.3 485.0
14 11:10 14.3 96 11.79 13.7 11 13 1012.7 2.6 26.4 31.2 53.0 139.7 142.0 490.9
14 11:00 14.4 96 11.87 13.8 13 15 1012.9 0.6 26.6 31.3 53.3 140.5 143.0 494.5
14 10:50 14.8 96 12.16 14.2 11 13 1012.8 0.4 27.2 31.6 54.3 143.2 146.5 506.7
14 10:40 14.7 96 12.09 14.1 9 11 1012.8 0.4 27.0 31.6 54.1 142.5 145.7 503.7
14 10:30 14.9 96 12.24 14.3 9 11 1012.9 0.4 27.3 31.8 54.6 144.0 147.5 510.2
14 10:20 15 96 12.31 14.4 0 6 1012.8 0.2 27.5 31.8 54.9 144.6 148.3 513.0
14 10:10 15 96 12.31 14.4 0 6 1012.8 0.2 27.5 31.8 54.9 144.6 148.3 513.0
14 10:00 15 96 12.31 14.4 6 7 1012.6 0.2 27.5 31.8 54.8 144.6 148.3 513.0
14 09:50 15.2 96 12.46 14.6 0 0 1012.6 0 27.8 32.0 55.4 146.0 150.1 519.3
14 09:40 15 96 12.31 14.4 7 9 1012.7 0 27.5 31.8 54.8 144.6 148.3 513.0
14 09:30 14.9 96 12.24 14.3 7 9 1012.6 0 27.3 31.7 54.6 143.9 147.5 510.0
14 09:20 14.8 96 12.16 14.2 6 6 1012.6 0 27.2 31.6 54.3 143.2 146.5 506.6
14 09:10 14.6 96 12.01 14 7 7 1012.6 0 26.9 31.4 53.8 141.7 144.6 500.2
14 09:00 14.6 96 12.01 14 6 6 1012.6 0 26.9 31.4 53.8 141.7 144.6 500.2
14 08:50 14.5 96 11.94 13.9 6 7 1012.5 17.4 26.7 31.3 53.5 141.1 143.8 497.2
14 08:40 14.4 96 11.87 13.8 9 11 1012.5 17.2 26.6 31.3 53.3 140.4 143.0 494.3
14 08:30 14.4 96 11.87 13.8 7 7 1012.4 17.2 26.6 31.2 53.3 140.4 143.0 494.3
14 08:20 14.3 96 11.79 13.7 7 9 1012.3 17.2 26.4 31.1 53.0 139.6 142.0 490.8
14 08:10 14.3 96 11.79 13.7 11 13 1012.3 17.2 26.4 31.1 53.0 139.6 142.0 490.8
14 08:00 14.2 96 11.72 13.6 9 13 1012.5 17.2 26.3 31.1 52.8 139.0 141.1 487.9
14 07:50 14.2 96 11.72 13.6 11 13 1012.4 17.2 26.3 31.1 52.7 139.0 141.1 487.9

Last Refresh: 15-Jun-2024 00:30:30

Bureau of Meteorology